Time;durP1;ratioP1;P1;durP2;ratioP2;P2;SDS_P1;SDS_P2;PMS_P1;PMS_P2;Temp;Humidity;BMP_temperature;BMP_pressure;BME280_temperature;BME280_humidity;BME280_pressure;Samples;Min_cycle;Max_cycle;Signal;HPM_P1;HPM_P2
2021/08/13 00:01:44;;;;;;;51.65;26.48;;;;;;;17.48;100.00;101959.94;5221338;28;20102;-84
2021/08/13 00:04:15;;;;;;;54.40;26.35;;;;;;;17.50;100.00;101965.19;5220715;28;20029;-84
2021/08/13 00:06:45;;;;;;;53.05;26.77;;;;;;;17.51;100.00;101961.44;5220272;28;20028;-85
2021/08/13 00:09:18;;;;;;;56.35;28.15;;;;;;;17.44;100.00;101965.91;5220232;28;20025;-84
2021/08/13 00:11:49;;;;;;;52.50;26.95;;;;;;;17.33;100.00;101968.06;5220575;28;20114;-84
2021/08/13 00:14:19;;;;;;;51.85;26.05;;;;;;;17.23;100.00;101962.03;5220265;28;20375;-85
2021/08/13 00:16:50;;;;;;;45.35;24.58;;;;;;;17.16;100.00;101968.38;5220671;28;20398;-84
2021/08/13 00:19:20;;;;;;;52.13;26.70;;;;;;;17.09;100.00;101957.41;5220384;28;20052;-85
2021/08/13 00:21:52;;;;;;;53.13;27.55;;;;;;;17.00;100.00;101948.50;5220316;28;20539;-84
2021/08/13 00:24:22;;;;;;;49.35;25.33;;;;;;;16.98;100.00;101955.13;5219935;28;20029;-84
2021/08/13 00:26:52;;;;;;;51.70;26.70;;;;;;;16.90;100.00;101964.16;5221763;28;20020;-85
2021/08/13 00:29:23;;;;;;;53.00;26.67;;;;;;;16.86;100.00;101968.25;5224097;28;20025;-84
2021/08/13 00:31:54;;;;;;;51.47;27.20;;;;;;;16.82;100.00;101973.22;5223555;28;20013;-84
2021/08/13 00:34:24;;;;;;;50.92;25.33;;;;;;;16.79;100.00;101987.13;5223681;28;20048;-84
2021/08/13 00:36:55;;;;;;;47.40;24.65;;;;;;;16.73;100.00;101978.88;5223192;28;20079;-84
2021/08/13 00:39:25;;;;;;;54.00;26.25;;;;;;;16.67;100.00;101985.81;5222911;28;20112;-85
2021/08/13 00:41:56;;;;;;;54.50;26.52;;;;;;;16.66;100.00;101983.25;5223109;28;20546;-84
2021/08/13 00:44:28;;;;;;;55.72;25.45;;;;;;;16.61;100.00;101988.38;5223156;28;20600;-84
2021/08/13 00:46:59;;;;;;;54.00;26.35;;;;;;;16.55;100.00;102000.78;5205386;28;20024;-84
2021/08/13 00:49:29;;;;;;;56.60;26.27;;;;;;;16.49;100.00;101999.63;5222653;28;20036;-85
2021/08/13 00:51:59;;;;;;;49.97;25.30;;;;;;;16.45;100.00;101998.28;5222470;28;20029;-85
2021/08/13 00:54:30;;;;;;;47.97;24.98;;;;;;;16.42;100.00;101997.81;5222953;28;20394;-83
2021/08/13 00:57:01;;;;;;;49.03;24.23;;;;;;;16.41;100.00;102001.50;5222979;28;20252;-84
2021/08/13 00:59:31;;;;;;;54.95;26.52;;;;;;;16.39;100.00;102006.28;5205921;28;20547;-84
2021/08/13 01:02:02;;;;;;;51.42;26.25;;;;;;;16.38;100.00;102007.31;5225234;28;20313;-85
2021/08/13 01:04:33;;;;;;;44.92;23.58;;;;;;;16.37;100.00;102016.44;5225304;28;20160;-83
2021/08/13 01:07:07;;;;;;;50.50;26.70;;;;;;;16.34;100.00;102008.66;5225103;28;20495;-85
2021/08/13 01:09:39;;;;;;;54.63;24.67;;;;;;;16.29;100.00;102007.31;5224877;28;20121;-84
2021/08/13 01:12:21;;;;;;;42.95;22.27;;;;;;;16.27;100.00;102005.84;5225129;28;20032;-84
2021/08/13 01:15:07;;;;;;;49.08;25.38;;;;;;;16.24;100.00;102007.00;5224978;28;20502;-84
2021/08/13 01:17:45;;;;;;;49.88;23.75;;;;;;;16.18;100.00;102007.72;5224341;28;20066;-85
2021/08/13 01:20:37;;;;;;;45.13;23.35;;;;;;;16.12;100.00;102021.13;5224262;28;20066;-85
2021/08/13 01:23:24;;;;;;;39.88;21.27;;;;;;;16.08;100.00;102014.34;5211254;28;20155;-84
2021/08/13 01:26:01;;;;;;;58.25;26.88;;;;;;;15.99;100.00;102014.38;5224394;28;20029;-85
2021/08/13 01:28:42;;;;;;;49.30;24.70;;;;;;;15.93;100.00;102008.81;5224254;28;20117;-84
2021/08/13 01:31:18;;;;;;;60.45;28.02;;;;;;;15.92;100.00;102015.25;5216592;28;20040;-84
2021/08/13 01:33:53;;;;;;;53.00;27.02;;;;;;;15.91;100.00;102024.38;5224478;28;20085;-85
2021/08/13 01:36:27;;;;;;;52.83;27.27;;;;;;;15.87;100.00;102017.63;5224029;28;20241;-84
2021/08/13 01:39:01;;;;;;;61.95;27.92;;;;;;;15.84;100.00;102015.25;5205226;28;20048;-84
2021/08/13 01:41:34;;;;;;;62.33;29.42;;;;;;;15.79;100.00;102018.47;5222823;28;20029;-84
2021/08/13 01:44:07;;;;;;;68.82;29.88;;;;;;;15.75;100.00;102017.13;5222872;28;20025;-85
2021/08/13 01:46:39;;;;;;;54.22;26.10;;;;;;;15.77;100.00;102009.69;5224038;28;20173;-84
2021/08/13 01:49:11;;;;;;;70.75;30.20;;;;;;;15.79;100.00;102007.66;5225004;28;20104;-85
2021/08/13 01:51:45;;;;;;;60.28;29.10;;;;;;;15.74;100.00;101994.66;5224274;28;20025;-84
2021/08/13 01:54:16;;;;;;;53.20;25.20;;;;;;;15.68;100.00;102000.75;5224704;28;20017;-84
2021/08/13 01:56:47;;;;;;;61.00;27.92;;;;;;;15.67;100.00;102004.47;5224375;28;20021;-84
2021/08/13 01:59:19;;;;;;;58.22;26.52;;;;;;;15.63;100.00;102013.94;5224658;28;20108;-84
2021/08/13 02:01:50;;;;;;;69.82;30.45;;;;;;;15.61;100.00;102013.22;5223749;28;20032;-84
2021/08/13 02:04:21;;;;;;;77.15;33.75;;;;;;;15.67;100.00;102009.03;5224044;28;20029;-85
2021/08/13 02:06:52;;;;;;;74.53;33.03;;;;;;;15.71;100.00;102011.25;5223757;28;20044;-84
2021/08/13 02:09:23;;;;;;;73.50;34.35;;;;;;;15.78;100.00;102009.53;5224067;28;20056;-85
2021/08/13 02:11:55;;;;;;;83.75;32.75;;;;;;;15.83;100.00;102008.16;5223547;28;20021;-84
2021/08/13 02:14:27;;;;;;;74.97;30.95;;;;;;;15.85;100.00;102009.66;5222991;28;20068;-84
2021/08/13 02:17:00;;;;;;;74.22;31.85;;;;;;;15.88;100.00;102008.50;5223346;28;20021;-84
2021/08/13 02:19:37;;;;;;;63.90;29.77;;;;;;;15.87;100.00;102007.66;5205185;28;20547;-85
2021/08/13 02:22:08;;;;;;;69.53;29.45;;;;;;;15.84;100.00;101999.88;5224190;28;20417;-84
2021/08/13 02:24:39;;;;;;;66.65;29.70;;;;;;;15.83;100.00;101995.47;5223178;28;20025;-85
2021/08/13 02:27:09;;;;;;;63.25;27.27;;;;;;;15.82;100.00;101999.22;5222577;28;20055;-84
2021/08/13 02:29:40;;;;;;;66.68;30.98;;;;;;;15.80;100.00;102010.19;5220631;28;20020;-84
2021/08/13 02:32:11;;;;;;;75.43;29.92;;;;;;;15.75;100.00;102009.00;5218445;28;20021;-84
2021/08/13 02:34:41;;;;;;;79.25;30.83;;;;;;;15.70;100.00;101997.84;5223343;28;20032;-84
2021/08/13 02:37:20;;;;;;;87.63;33.28;;;;;;;15.72;100.00;102009.38;5221481;28;20021;-83
2021/08/13 02:40:00;;;;;;;83.63;32.88;;;;;;;15.73;100.00;102006.50;5221372;28;20025;-83
2021/08/13 02:42:44;;;;;;;75.97;32.85;;;;;;;15.73;100.00;102006.50;5221507;28;20448;-84
2021/08/13 02:45:17;;;;;;;77.25;32.05;;;;;;;15.69;100.00;102007.84;5220642;28;20029;-84
2021/08/13 02:47:50;;;;;;;84.57;32.92;;;;;;;15.70;100.00;102009.53;5221873;28;20066;-83
2021/08/13 02:50:24;;;;;;;86.55;33.15;;;;;;;15.66;100.00;102016.31;5207857;28;20451;-84
2021/08/13 02:53:00;;;;;;;85.57;34.25;;;;;;;15.63;100.00;102024.75;5221273;28;20017;-84
2021/08/13 02:55:46;;;;;;;87.50;32.20;;;;;;;15.57;100.00;102008.34;5221273;28;20482;-84
2021/08/13 02:58:21;;;;;;;87.35;32.33;;;;;;;15.53;100.00;102007.84;5221323;28;20494;-84
2021/08/13 03:00:54;;;;;;;90.75;34.67;;;;;;;15.49;100.00;101993.81;5220459;28;20033;-83
2021/08/13 03:03:30;;;;;;;85.43;34.40;;;;;;;15.49;100.00;101999.22;5220304;28;20079;-84
2021/08/13 03:06:03;;;;;;;81.28;31.83;;;;;;;15.49;100.00;102001.06;5220323;28;20032;-83
2021/08/13 03:08:34;;;;;;;89.00;36.67;;;;;;;15.47;100.00;102000.41;5220861;28;20347;-84
2021/08/13 03:11:05;;;;;;;82.40;32.10;;;;;;;15.43;100.00;102002.59;5220199;28;20017;-84
2021/08/13 03:13:37;;;;;;;81.05;32.10;;;;;;;15.41;100.00;101995.66;5220536;28;20505;-84
2021/08/13 03:16:09;;;;;;;84.95;33.17;;;;;;;15.41;100.00;102001.94;5220261;28;20075;-84
2021/08/13 03:18:40;;;;;;;86.13;33.50;;;;;;;15.39;100.00;102001.25;5220847;28;20494;-84
2021/08/13 03:21:11;;;;;;;91.45;36.72;;;;;;;15.37;100.00;102002.44;5219881;28;20094;-84
2021/08/13 03:23:42;;;;;;;89.97;34.40;;;;;;;15.33;100.00;101991.13;5220219;28;20111;-84
2021/08/13 03:26:14;;;;;;;85.65;35.08;;;;;;;15.30;100.00;101994.16;5220295;28;20025;-84
2021/08/13 03:28:46;;;;;;;90.30;33.20;;;;;;;15.22;100.00;102005.81;5220424;28;20025;-84
2021/08/13 03:31:38;;;;;;;82.65;33.70;;;;;;;15.16;100.00;101998.41;5213127;28;20086;-84
2021/08/13 03:34:09;;;;;;;80.60;32.80;;;;;;;15.09;100.00;101999.22;5220344;28;20053;-83
2021/08/13 03:36:40;;;;;;;81.65;33.35;;;;;;;15.05;100.00;102003.25;5219861;28;20117;-84
2021/08/13 03:39:11;;;;;;;94.40;34.65;;;;;;;14.99;100.00;101997.53;5220167;28;20112;-83
2021/08/13 03:41:42;;;;;;;90.28;34.97;;;;;;;14.96;100.00;102008.69;5220419;28;20477;-84
2021/08/13 03:44:12;;;;;;;97.55;36.25;;;;;;;14.94;100.00;102009.84;5220991;28;20057;-84
2021/08/13 03:46:43;;;;;;;94.63;34.70;;;;;;;14.90;100.00;102012.03;5219884;28;20395;-84
2021/08/13 03:49:13;;;;;;;103.70;36.15;;;;;;;14.85;100.00;102010.84;5220117;28;20174;-84
2021/08/13 03:51:44;;;;;;;89.93;32.63;;;;;;;14.81;100.00;102015.75;5219988;28;20337;-84
2021/08/13 03:54:15;;;;;;;85.55;33.30;;;;;;;14.75;100.00;102017.22;5220141;28;20013;-84
2021/08/13 03:56:45;;;;;;;87.97;33.28;;;;;;;14.72;100.00;102009.47;5219860;28;20450;-84
2021/08/13 03:59:15;;;;;;;89.22;34.20;;;;;;;14.70;100.00;102006.06;5219870;28;20029;-83
2021/08/13 04:01:46;;;;;;;82.68;32.10;;;;;;;14.68;100.00;102008.09;5221577;28;20036;-84
2021/08/13 04:04:16;;;;;;;80.35;31.65;;;;;;;14.63;100.00;102002.34;5224069;28;20025;-84
2021/08/13 04:06:47;;;;;;;74.18;27.75;;;;;;;14.58;100.00;102004.72;5224596;28;20490;-83
2021/08/13 04:09:17;;;;;;;69.22;26.75;;;;;;;14.53;100.00;102004.34;5224300;28;20453;-83
2021/08/13 04:11:48;;;;;;;73.32;29.92;;;;;;;14.48;100.00;102012.94;5223946;28;20397;-84
2021/08/13 04:14:18;;;;;;;79.57;31.02;;;;;;;14.43;100.00;102006.31;5224021;28;20029;-84
2021/08/13 04:16:48;;;;;;;73.10;29.10;;;;;;;14.38;100.00;102014.91;5224291;28;20031;-84
2021/08/13 04:19:19;;;;;;;77.40;29.38;;;;;;;14.34;100.00;102015.38;5223999;28;20029;-84
2021/08/13 04:21:49;;;;;;;80.25;31.13;;;;;;;14.32;100.00;102020.09;5224012;28;20021;-84
2021/08/13 04:24:20;;;;;;;71.38;28.58;;;;;;;14.27;100.00;102017.91;5223659;28;20037;-84
2021/08/13 04:26:50;;;;;;;71.70;28.88;;;;;;;14.23;100.00;102019.22;5224365;28;20028;-84
2021/08/13 04:29:21;;;;;;;73.05;26.98;;;;;;;14.20;100.00;102027.63;5224110;28;20036;-84
2021/08/13 04:31:51;;;;;;;69.40;26.83;;;;;;;14.16;100.00;102019.03;5215918;28;20029;-83
2021/08/13 04:34:22;;;;;;;73.93;26.35;;;;;;;14.14;100.00;102022.88;5224157;28;20378;-84
2021/08/13 04:36:52;;;;;;;79.07;29.80;;;;;;;14.10;100.00;102035.00;5223394;28;20056;-84
2021/08/13 04:39:23;;;;;;;74.13;27.90;;;;;;;14.09;100.00;102022.53;5223877;28;20270;-84
2021/08/13 04:41:53;;;;;;;73.25;27.58;;;;;;;14.08;100.00;102020.84;5223557;28;20103;-84
2021/08/13 04:44:24;;;;;;;66.40;27.00;;;;;;;14.10;100.00;102029.59;5223377;28;20249;-84
2021/08/13 04:46:54;;;;;;;72.40;26.52;;;;;;;14.16;100.00;102029.81;5223356;28;20513;-84
2021/08/13 04:49:25;;;;;;;67.57;25.75;;;;;;;14.28;100.00;102037.63;5221841;28;20088;-83
2021/08/13 04:51:56;;;;;;;72.10;27.08;;;;;;;14.37;100.00;102040.22;5222186;28;20115;-83
2021/08/13 04:54:26;;;;;;;70.63;26.45;;;;;;;14.50;100.00;102042.47;5222375;28;20025;-83
2021/08/13 04:56:58;;;;;;;74.18;26.58;;;;;;;14.59;100.00;102044.19;5221899;28;20033;-85
2021/08/13 04:59:28;;;;;;;64.45;24.55;;;;;;;14.64;100.00;102047.25;5221954;28;20039;-84
2021/08/13 05:01:59;;;;;;;67.53;24.75;;;;;;;14.68;100.00;102051.31;5221452;28;20511;-83
2021/08/13 05:04:29;;;;;;;55.05;22.17;;;;;;;14.76;100.00;102040.56;5221814;28;20413;-84
2021/08/13 05:07:00;;;;;;;48.15;20.50;;;;;;;14.88;100.00;102041.06;5221951;28;20722;-84
2021/08/13 05:09:32;;;;;;;50.35;20.45;;;;;;;14.98;100.00;102046.34;5224074;28;20410;-84
2021/08/13 05:12:03;;;;;;;50.13;19.17;;;;;;;15.13;100.00;102060.88;5213771;28;20129;-83
2021/08/13 05:14:34;;;;;;;43.92;18.38;;;;;;;15.24;100.00;102047.03;5221967;28;20104;-83
2021/08/13 05:17:04;;;;;;;42.60;17.95;;;;;;;15.34;100.00;102057.69;5221877;28;20052;-83
2021/08/13 05:19:34;;;;;;;40.10;17.88;;;;;;;15.43;100.00;102056.69;5221933;28;20033;-84
2021/08/13 05:22:05;;;;;;;34.35;15.80;;;;;;;15.58;100.00;102073.09;5221789;28;20064;-85
2021/08/13 05:24:35;;;;;;;29.23;15.55;;;;;;;15.57;100.00;102066.00;5221486;28;20029;-83
2021/08/13 05:27:06;;;;;;;30.00;15.50;;;;;;;15.62;100.00;102060.06;5222853;28;20048;-83
2021/08/13 05:29:36;;;;;;;28.77;13.07;;;;;;;15.65;100.00;102068.72;5221652;28;20037;-83
2021/08/13 05:32:07;;;;;;;25.80;12.00;;;;;;;15.73;100.00;102068.72;5217791;28;20029;-85
2021/08/13 05:34:37;;;;;;;21.48;10.40;;;;;;;15.92;100.00;102067.50;5224034;28;20573;-84
2021/08/13 05:37:08;;;;;;;24.05;11.00;;;;;;;15.94;100.00;102065.47;5203803;28;20037;-85
2021/08/13 05:39:38;;;;;;;27.60;11.90;;;;;;;16.07;100.00;102070.34;5221511;28;20056;-83
2021/08/13 05:42:09;;;;;;;19.20;9.63;;;;;;;16.17;100.00;102070.16;5221403;28;20024;-85
2021/08/13 05:44:39;;;;;;;19.88;9.45;;;;;;;16.17;100.00;102071.00;5221547;28;20021;-86
2021/08/13 05:47:10;;;;;;;16.67;8.50;;;;;;;16.20;100.00;102069.81;5180610;28;1162150;-83
2021/08/13 05:49:41;;;;;;;14.50;8.57;;;;;;;16.22;100.00;102074.03;5223014;28;20025;-88
2021/08/13 05:52:11;;;;;;;15.90;8.23;;;;;;;16.24;100.00;102066.56;5224189;28;20024;-83
2021/08/13 05:54:42;;;;;;;14.82;8.00;;;;;;;16.42;100.00;102069.06;5224516;28;20537;-84
2021/08/13 05:57:12;;;;;;;14.15;7.53;;;;;;;16.48;100.00;102070.22;5224043;28;20059;-82
2021/08/13 05:59:43;;;;;;;15.68;8.27;;;;;;;16.51;100.00;102072.56;5223557;28;20453;-82
2021/08/13 06:02:18;;;;;;;14.73;7.95;;;;;;;16.65;100.00;102076.41;5210591;28;20033;-83
2021/08/13 06:04:48;;;;;;;12.95;6.60;;;;;;;16.73;100.00;102077.25;5184661;28;20398;-83
2021/08/13 06:07:19;;;;;;;13.40;7.35;;;;;;;16.87;100.00;102080.22;5211577;28;20029;-84
2021/08/13 06:09:49;;;;;;;14.32;7.07;;;;;;;17.09;100.00;102068.56;5225640;28;20466;-84
2021/08/13 06:12:20;;;;;;;15.52;8.07;;;;;;;17.11;100.00;102071.09;5228677;28;20597;-84
2021/08/13 06:14:50;;;;;;;14.20;7.05;;;;;;;17.36;100.00;102069.91;5220178;28;20013;-85
2021/08/13 06:17:21;;;;;;;15.32;6.60;;;;;;;17.54;100.00;102075.03;5220731;28;20494;-84
2021/08/13 06:19:51;;;;;;;12.98;6.20;;;;;;;17.56;100.00;102073.81;5223421;28;20096;-83
2021/08/13 06:22:21;;;;;;;12.20;6.60;;;;;;;17.92;100.00;102072.31;5224171;28;20056;-84
2021/08/13 06:24:52;;;;;;;11.15;5.80;;;;;;;17.84;100.00;102086.84;5222767;28;20033;-85
2021/08/13 06:27:22;;;;;;;12.85;6.30;;;;;;;17.91;100.00;102092.34;5221525;28;20135;-84
2021/08/13 06:29:53;;;;;;;11.73;6.85;;;;;;;17.90;100.00;102099.66;5222955;28;20109;-84
2021/08/13 06:32:24;;;;;;;14.00;6.18;;;;;;;17.77;100.00;102108.44;5221804;28;20025;-84
2021/08/13 06:34:54;;;;;;;10.48;6.07;;;;;;;17.70;100.00;102107.44;5204721;28;20433;-85
2021/08/13 06:37:25;;;;;;;10.18;6.05;;;;;;;17.64;100.00;102112.75;5221971;28;20029;-84
2021/08/13 06:39:55;;;;;;;12.27;6.50;;;;;;;17.73;100.00;102106.28;5221452;28;20037;-84
2021/08/13 06:42:26;;;;;;;13.20;6.47;;;;;;;17.64;100.00;102104.63;5221810;28;20568;-83
2021/08/13 06:44:56;;;;;;;11.68;6.53;;;;;;;17.68;100.00;102109.50;5222695;28;20051;-84
2021/08/13 06:47:27;;;;;;;16.05;6.38;;;;;;;17.81;100.00;102111.63;5222057;28;20035;-83
2021/08/13 06:49:58;;;;;;;13.30;6.25;;;;;;;17.67;100.00;102118.69;5222337;28;20033;-85
2021/08/13 06:52:28;;;;;;;14.18;6.35;;;;;;;17.77;100.00;102119.31;5222012;28;20470;-86
2021/08/13 06:54:59;;;;;;;14.13;6.57;;;;;;;18.01;100.00;102134.50;5221479;28;20059;-85
2021/08/13 06:57:29;;;;;;;13.02;6.55;;;;;;;18.00;100.00;102123.84;5220972;28;20021;-86
2021/08/13 07:00:03;;;;;;;14.73;6.63;;;;;;;18.04;100.00;102127.88;5221150;28;20651;-84
2021/08/13 07:02:33;;;;;;;13.63;8.25;;;;;;;18.04;100.00;102120.56;5219825;28;20475;-84
2021/08/13 07:05:05;;;;;;;15.63;8.38;;;;;;;18.09;100.00;102126.28;5219162;28;20029;-85
2021/08/13 07:07:35;;;;;;;14.55;8.05;;;;;;;18.19;100.00;102138.78;5201509;28;20078;-84
2021/08/13 07:10:09;;;;;;;14.05;8.57;;;;;;;18.28;100.00;102132.22;5201687;28;20016;-84
2021/08/13 07:12:40;;;;;;;13.52;8.20;;;;;;;18.53;100.00;102130.91;5220076;28;20029;-84
2021/08/13 07:15:11;;;;;;;17.30;8.57;;;;;;;18.71;100.00;102140.59;5221223;28;20419;-85
2021/08/13 07:17:42;;;;;;;13.18;8.00;;;;;;;18.90;100.00;102142.72;5221715;28;20386;-83
2021/08/13 07:20:12;;;;;;;13.68;8.18;;;;;;;18.87;100.00;102146.66;5221260;28;20048;-84
2021/08/13 07:22:43;;;;;;;15.52;8.27;;;;;;;18.84;100.00;102149.78;5182795;28;20032;-84
2021/08/13 07:25:13;;;;;;;15.00;7.55;;;;;;;18.98;100.00;102150.78;5178507;28;20029;-85
2021/08/13 07:27:44;;;;;;;15.75;7.95;;;;;;;19.00;100.00;102164.19;5220480;28;20020;-84
2021/08/13 07:30:15;;;;;;;14.20;8.00;;;;;;;19.12;100.00;102174.38;5221308;28;20028;-84
2021/08/13 07:32:46;;;;;;;13.00;7.20;;;;;;;19.44;100.00;102171.41;5221222;28;20115;-83
2021/08/13 07:35:16;;;;;;;12.98;6.88;;;;;;;19.45;100.00;102170.38;5219854;28;20111;-85
2021/08/13 07:37:47;;;;;;;12.38;6.97;;;;;;;19.53;100.00;102170.22;5219538;28;20024;-82
2021/08/13 07:40:17;;;;;;;14.90;6.53;;;;;;;19.63;100.00;102165.38;5218848;28;20032;-86
2021/08/13 07:42:48;;;;;;;12.00;6.35;;;;;;;19.76;100.00;102162.75;5219954;28;20390;-84
2021/08/13 07:45:18;;;;;;;12.18;6.82;;;;;;;19.63;100.00;102170.81;5201812;28;20040;-83
2021/08/13 07:47:49;;;;;;;11.85;6.43;;;;;;;19.73;100.00;102184.94;5219344;28;20059;-84
2021/08/13 07:50:20;;;;;;;13.85;7.25;;;;;;;19.67;100.00;102181.09;5219232;28;20025;-85
2021/08/13 07:52:51;;;;;;;12.73;6.80;;;;;;;19.74;100.00;102180.34;5219302;28;20098;-84
2021/08/13 07:55:21;;;;;;;13.52;7.32;;;;;;;20.06;100.00;102177.06;5219165;28;20033;-86
2021/08/13 07:57:52;;;;;;;12.40;6.38;;;;;;;20.27;100.00;102188.94;5219554;28;20032;-84
2021/08/13 08:00:22;;;;;;;14.60;6.40;;;;;;;20.53;100.00;102191.88;5219101;28;20032;-85
2021/08/13 08:02:53;;;;;;;11.00;6.43;;;;;;;20.88;100.00;102190.03;5219214;28;20127;-83
2021/08/13 08:05:23;;;;;;;11.30;6.22;;;;;;;20.94;100.00;102185.66;5219338;28;20017;-83
2021/08/13 08:07:54;;;;;;;10.73;6.20;;;;;;;21.12;100.00;102199.56;5218973;28;20087;-85
2021/08/13 08:10:24;;;;;;;8.55;5.15;;;;;;;21.46;100.00;102200.56;5218877;28;20037;-84
2021/08/13 08:12:55;;;;;;;9.57;5.20;;;;;;;21.49;100.00;102210.22;5219989;28;20051;-83
2021/08/13 08:15:25;;;;;;;10.13;5.22;;;;;;;21.45;100.00;102205.19;5219888;28;20236;-85
2021/08/13 08:17:56;;;;;;;8.18;5.03;;;;;;;21.63;100.00;102206.47;5218882;28;20029;-87
2021/08/13 08:20:26;;;;;;;11.27;5.50;;;;;;;21.50;100.00;102204.56;5218874;28;20237;-88
2021/08/13 08:22:57;;;;;;;9.05;4.75;;;;;;;21.39;100.00;102211.47;5219337;28;20043;-82
2021/08/13 08:25:29;;;;;;;8.88;4.65;;;;;;;21.84;100.00;102200.84;5219593;28;20108;-83
2021/08/13 08:27:59;;;;;;;11.50;4.88;;;;;;;21.82;100.00;102194.75;5219092;28;20116;-83
2021/08/13 08:30:30;;;;;;;9.80;4.15;;;;;;;21.95;100.00;102191.19;5211406;28;20104;-82
2021/08/13 08:33:01;;;;;;;10.77;4.93;;;;;;;22.02;100.00;102189.28;5219850;28;20029;-83
2021/08/13 08:35:31;;;;;;;10.75;5.32;;;;;;;21.88;100.00;102191.16;5201407;28;20032;-84
2021/08/13 08:38:02;;;;;;;11.10;5.20;;;;;;;21.59;100.00;102197.03;5219171;28;20021;-83
2021/08/13 08:40:36;;;;;;;9.43;4.85;;;;;;;21.71;100.00;102198.09;5218535;28;20024;-83
2021/08/13 08:43:08;;;;;;;9.35;5.03;;;;;;;21.83;100.00;102211.97;5219991;28;20089;-82
2021/08/13 08:45:40;;;;;;;9.43;5.03;;;;;;;21.54;100.00;102211.31;5219784;28;20120;-84
2021/08/13 08:48:11;;;;;;;7.95;4.70;;;;;;;21.33;100.00;102211.41;5222251;28;20036;-82
2021/08/13 08:50:42;;;;;;;8.60;4.22;;;;;;;21.83;100.00;102217.44;5224021;28;20017;-83
2021/08/13 08:53:20;;;;;;;6.90;4.28;;;;;;;21.73;100.00;102220.56;5205239;28;20072;-85
2021/08/13 08:55:52;;;;;;;9.25;3.90;;;;;;;21.84;100.00;102225.44;5223161;28;20040;-84
2021/08/13 08:58:26;;;;;;;9.05;4.75;;;;;;;21.72;100.00;102227.09;5189357;28;20025;-84
2021/08/13 09:00:56;;;;;;;8.35;4.10;;;;;;;21.64;100.00;102217.22;5223473;28;20037;-82
2021/08/13 09:03:27;;;;;;;7.45;3.95;;;;;;;21.78;100.00;102226.25;5205612;28;20025;-86
2021/08/13 09:05:58;;;;;;;6.43;3.88;;;;;;;21.92;100.00;102225.22;5222394;28;20032;-84
2021/08/13 09:08:29;;;;;;;8.55;3.90;;;;;;;22.06;100.00;102222.50;5223669;28;20016;-84
2021/08/13 09:10:59;;;;;;;11.18;4.45;;;;;;;22.00;100.00;102224.19;5223446;28;20041;-84
2021/08/13 09:13:32;;;;;;;7.97;3.60;;;;;;;22.40;100.00;102235.16;5223424;28;20028;-83
2021/08/13 09:16:12;;;;;;;6.78;3.35;;;;;;;22.39;100.00;102233.47;5222822;28;20267;-83
2021/08/13 09:18:55;;;;;;;7.15;3.75;;;;;;;22.46;100.00;102224.22;5222362;28;20056;-83
2021/08/13 09:21:26;;;;;;;6.25;3.70;;;;;;;22.25;100.00;102218.97;5204223;28;20025;-85
2021/08/13 09:24:00;;;;;;;7.38;3.53;;;;;;;22.36;100.00;102223.81;5204628;28;20033;-84
2021/08/13 09:26:41;;;;;;;8.48;3.50;;;;;;;22.69;100.00;102231.13;5222047;28;20063;-83
2021/08/13 09:29:19;;;;;;;10.52;3.67;;;;;;;22.45;100.00;102227.19;5222381;28;20025;-86
2021/08/13 09:31:52;;;;;;;6.88;3.42;;;;;;;22.61;100.00;102217.69;5222455;28;20090;-82
2021/08/13 09:34:30;;;;;;;9.25;3.40;;;;;;;22.89;100.00;102231.09;5222277;28;20021;-84
2021/08/13 09:37:01;;;;;;;12.88;4.03;;;;;;;23.35;100.00;102232.84;5222124;28;20032;-85
2021/08/13 09:39:33;;;;;;;6.97;3.45;;;;;;;23.48;100.00;102238.25;5222166;28;20568;-84
2021/08/13 09:42:09;;;;;;;7.85;3.85;;;;;;;23.15;100.00;102242.00;5221975;28;20025;-84
2021/08/13 09:44:41;;;;;;;11.35;3.72;;;;;;;22.82;100.00;102233.84;5221640;28;20375;-82
2021/08/13 09:47:14;;;;;;;8.38;3.53;;;;;;;22.96;100.00;102238.25;5220555;28;20024;-83
2021/08/13 09:49:54;;;;;;;6.53;3.35;;;;;;;22.82;100.00;102236.56;5221709;28;20017;-85
2021/08/13 09:52:26;;;;;;;7.65;3.80;;;;;;;22.97;100.00;102242.66;5220811;28;20398;-83
2021/08/13 09:55:12;;;;;;;7.75;3.38;;;;;;;23.24;100.00;102245.31;5221384;28;20052;-86
2021/08/13 09:57:44;;;;;;;10.63;3.65;;;;;;;23.68;100.00;102244.50;5220249;28;20030;-85
2021/08/13 10:00:16;;;;;;;5.75;3.45;;;;;;;24.07;95.41;102237.06;5219589;28;20052;-83
2021/08/13 10:02:47;;;;;;;7.65;3.40;;;;;;;24.22;87.89;102239.47;5220660;28;20028;-82
2021/08/13 10:05:20;;;;;;;6.75;3.80;;;;;;;23.94;90.49;102242.63;5220725;28;20021;-83
2021/08/13 10:07:53;;;;;;;9.18;3.80;;;;;;;23.73;100.00;102235.63;5220256;28;20057;-83
2021/08/13 10:10:27;;;;;;;6.72;3.33;;;;;;;23.77;100.00;102231.38;5220290;28;20063;-82
2021/08/13 10:12:59;;;;;;;9.27;3.22;;;;;;;23.81;100.00;102229.88;5220637;28;20127;-82
2021/08/13 10:15:32;;;;;;;7.40;3.58;;;;;;;23.59;100.00;102240.28;5202793;28;20029;-82
2021/08/13 10:18:05;;;;;;;7.88;3.40;;;;;;;23.81;100.00;102224.41;5221336;28;20525;-82
2021/08/13 10:20:38;;;;;;;10.05;2.95;;;;;;;24.01;100.00;102221.53;5221486;28;20025;-83
2021/08/13 10:23:10;;;;;;;7.75;3.20;;;;;;;24.59;100.00;102209.41;5222202;28;20024;-81
2021/08/13 10:25:41;;;;;;;7.22;3.00;;;;;;;24.48;100.00;102205.53;5221787;28;20249;-83
2021/08/13 10:28:11;;;;;;;7.05;3.17;;;;;;;24.85;100.00;102203.66;5222100;28;20025;-84
2021/08/13 10:30:42;;;;;;;9.48;3.72;;;;;;;25.15;87.21;102212.00;5214659;28;20575;-83
2021/08/13 10:33:14;;;;;;;11.43;3.58;;;;;;;24.97;87.64;102223.78;5221330;28;20082;-84
2021/08/13 10:35:54;;;;;;;16.17;3.85;;;;;;;25.27;100.00;102229.34;5221634;28;20032;-84
2021/08/13 10:38:29;;;;;;;5.57;3.00;;;;;;;25.30;77.01;102222.56;5235999;28;20025;-86
2021/08/13 10:41:00;;;;;;;6.03;3.22;;;;;;;25.67;81.30;102219.75;5203823;28;20021;-86
2021/08/13 10:43:34;;;;;;;7.15;3.60;;;;;;;25.69;64.87;102223.06;5239500;28;20017;-88
2021/08/13 10:46:07;;;;;;;7.35;3.15;;;;;;;25.65;72.10;102205.38;5224444;28;20039;-86
2021/08/13 10:48:42;;;;;;;6.97;3.22;;;;;;;26.06;95.57;102221.06;5221521;28;20025;-83
2021/08/13 10:51:12;;;;;;;8.68;3.97;;;;;;;25.87;64.01;102217.56;5236947;28;20147;-87
2021/08/13 10:53:43;;;;;;;8.90;3.42;;;;;;;25.87;65.21;102231.31;5237936;28;20048;-86
2021/08/13 10:56:41;;;;;;;10.13;3.28;;;;;;;26.17;57.40;102231.25;5237305;28;20021;-85
2021/08/13 10:59:12;;;;;;;10.13;3.50;;;;;;;26.28;56.92;102240.59;5228165;28;20012;-86
2021/08/13 11:02:08;;;;;;;9.07;3.25;;;;;;;25.88;58.78;102227.47;5238057;28;20016;-86
2021/08/13 11:04:40;;;;;;;6.97;3.47;;;;;;;26.03;66.50;102229.78;5237833;28;20577;-85
2021/08/13 11:07:11;;;;;;;8.55;3.38;;;;;;;26.26;55.72;102240.00;5219813;28;20078;-88
2021/08/13 11:09:42;;;;;;;5.07;3.40;;;;;;;26.27;59.16;102244.41;5224466;28;20008;-86
2021/08/13 11:12:13;;;;;;;6.07;3.45;;;;;;;26.43;64.56;102238.22;5228685;28;20080;-86
2021/08/13 11:14:52;;;;;;;5.78;3.42;;;;;;;26.47;55.35;102236.69;5221633;28;20021;-86
2021/08/13 11:17:43;;;;;;;9.05;3.70;;;;;;;26.55;58.05;102247.31;5239025;28;20032;-85
2021/08/13 11:20:15;;;;;;;7.30;3.20;;;;;;;26.48;56.86;102235.59;5222049;28;20519;-86
2021/08/13 11:22:45;;;;;;;8.55;3.28;;;;;;;26.26;54.64;102234.50;5219387;28;20085;-84
2021/08/13 11:25:16;;;;;;;9.27;3.65;;;;;;;26.28;53.84;102244.16;5219400;28;20456;-82
2021/08/13 11:28:18;;;;;;;8.82;3.55;;;;;;;25.86;53.24;102242.53;5201516;28;20563;-84
2021/08/13 11:30:50;;;;;;;6.63;3.28;;;;;;;25.35;53.64;102244.66;5211806;28;20051;-85